Time;durP1;ratioP1;P1;durP2;ratioP2;P2;SDS_P1;SDS_P2;PMS_P1;PMS_P2;Temp;Humidity;BMP_temperature;BMP_pressure;BME280_temperature;BME280_humidity;BME280_pressure;Samples;Min_cycle;Max_cycle;Signal;HPM_P1;HPM_P2
2022/01/14 00:01:04;;;;;;;15.87;7.10;;;6.00;99.90;;;;;;5077966;28;20435;-55
2022/01/14 00:03:31;;;;;;;23.50;11.20;;;6.00;99.90;;;;;;5077989;28;20517;-54
2022/01/14 00:05:57;;;;;;;15.43;5.70;;;5.90;99.90;;;;;;5077825;28;20444;-54
2022/01/14 00:08:24;;;;;;;16.90;8.23;;;6.00;99.90;;;;;;5076942;28;20470;-52
2022/01/14 00:10:51;;;;;;;15.20;8.80;;;5.90;99.90;;;;;;5077612;28;20429;-54
2022/01/14 00:16:02;;;;;;;16.30;9.17;;;5.90;99.90;;;;;;5076621;28;20435;-53
2022/01/14 00:18:29;;;;;;;20.83;9.50;;;5.90;99.90;;;;;;5077190;28;20474;-53
2022/01/14 00:20:55;;;;;;;26.20;9.07;;;5.90;99.90;;;;;;5076614;28;20805;-54
2022/01/14 00:23:29;;;;;;;14.43;7.93;;;5.90;99.90;;;;;;5077122;28;20488;-53
2022/01/14 00:34:06;;;;;;;24.63;10.50;;;5.90;99.90;;;;;;5073729;28;20465;-54
2022/01/14 00:36:35;;;;;;;13.07;7.70;;;5.90;99.90;;;;;;5077866;28;20412;-53
2022/01/14 00:39:02;;;;;;;23.17;10.90;;;5.90;99.90;;;;;;5077354;28;20463;-50
2022/01/14 00:41:29;;;;;;;16.03;9.80;;;5.90;99.90;;;;;;5077161;28;20494;-53
2022/01/14 00:44:01;;;;;;;17.70;9.20;;;5.90;99.90;;;;;;5077536;28;20437;-51
2022/01/14 00:46:29;;;;;;;19.10;8.97;;;5.90;99.90;;;;;;5077248;28;20475;-50
2022/01/14 00:48:56;;;;;;;25.27;8.60;;;5.90;99.90;;;;;;5077364;28;20486;-53
2022/01/14 00:51:23;;;;;;;25.40;10.40;;;6.00;99.90;;;;;;5077178;28;20468;-56
2022/01/14 00:53:50;;;;;;;22.00;10.03;;;6.00;99.90;;;;;;5077657;28;20436;-52
2022/01/14 00:56:26;;;;;;;17.77;8.77;;;6.00;99.90;;;;;;5077268;28;20445;-49
2022/01/14 01:01:39;;;;;;;24.17;10.00;;;6.00;99.90;;;;;;5077341;28;20443;-51
2022/01/14 01:04:07;;;;;;;10.03;6.57;;;6.00;99.90;;;;;;5076923;28;20523;-48
2022/01/14 01:06:33;;;;;;;23.10;11.50;;;6.10;99.90;;;;;;5077447;28;20474;-53
2022/01/14 01:09:00;;;;;;;24.00;8.07;;;6.10;99.90;;;;;;5077691;28;20430;-51
2022/01/14 01:11:33;;;;;;;22.37;10.00;;;6.10;99.90;;;;;;5077151;28;20442;-54
2022/01/14 01:14:05;;;;;;;12.70;7.30;;;6.10;99.90;;;;;;5077412;28;20439;-48
2022/01/14 01:16:32;;;;;;;22.57;9.40;;;6.10;99.90;;;;;;5077026;28;20471;-55
2022/01/14 01:19:00;;;;;;;22.33;9.63;;;6.10;99.90;;;;;;5076779;28;20440;-54
2022/01/14 01:21:26;;;;;;;13.20;9.47;;;6.10;99.90;;;;;;5076718;28;20468;-54
2022/01/14 01:23:53;;;;;;;11.57;9.13;;;6.10;99.90;;;;;;5077025;28;20416;-55
2022/01/14 01:26:26;;;;;;;21.37;8.83;;;6.10;99.90;;;;;;5077122;28;20466;-49
2022/01/14 01:29:00;;;;;;;30.83;10.40;;;6.10;99.90;;;;;;5077206;28;20435;-54
2022/01/14 01:31:38;;;;;;;14.70;6.53;;;6.10;99.90;;;;;;5076920;28;20472;-51
2022/01/14 01:34:07;;;;;;;10.00;5.43;;;6.10;99.90;;;;;;5077054;28;20462;-51
2022/01/14 01:36:35;;;;;;;21.63;9.60;;;6.10;99.90;;;;;;5077355;28;20478;-51
2022/01/14 01:39:02;;;;;;;26.37;11.53;;;6.10;99.90;;;;;;5076642;28;20450;-54
2022/01/14 01:41:30;;;;;;;26.67;9.80;;;6.10;99.90;;;;;;5076764;28;20474;-51
2022/01/14 01:43:57;;;;;;;20.00;9.00;;;6.20;99.90;;;;;;5076818;28;20444;-50
2022/01/14 01:46:24;;;;;;;20.23;10.50;;;6.10;99.90;;;;;;5077488;28;20473;-50
2022/01/14 01:48:51;;;;;;;19.70;8.17;;;6.10;99.90;;;;;;5076829;28;20444;-54
2022/01/14 01:51:21;;;;;;;21.63;9.90;;;6.10;99.90;;;;;;5076769;28;20408;-48
2022/01/14 01:53:48;;;;;;;19.60;7.27;;;6.10;99.90;;;;;;5076889;28;20435;-52
2022/01/14 01:56:15;;;;;;;24.60;9.80;;;6.10;99.90;;;;;;5075480;28;20440;-50
2022/01/14 01:58:44;;;;;;;29.53;9.77;;;6.10;99.90;;;;;;5075936;28;20460;-52
2022/01/14 02:01:11;;;;;;;22.03;9.33;;;6.10;99.90;;;;;;5076210;28;20494;-53
2022/01/14 02:03:40;;;;;;;21.63;11.20;;;6.20;99.90;;;;;;5076405;28;20473;-53
2022/01/14 02:06:09;;;;;;;22.20;10.37;;;6.10;99.90;;;;;;5076014;28;20456;-50
2022/01/14 02:08:37;;;;;;;14.70;9.33;;;6.10;99.90;;;;;;5075912;28;20489;-52
2022/01/14 02:11:04;;;;;;;31.00;10.03;;;6.10;99.90;;;;;;5075772;28;20455;-52
2022/01/14 02:13:31;;;;;;;16.10;8.33;;;6.10;99.90;;;;;;5075951;28;20440;-53
2022/01/14 02:16:17;;;;;;;12.10;6.00;;;6.10;99.90;;;;;;5075249;28;20460;-54
2022/01/14 02:18:59;;;;;;;19.17;9.30;;;6.10;99.90;;;;;;5076043;28;20428;-53
2022/01/14 02:24:32;;;;;;;21.73;10.23;;;6.10;99.90;;;;;;5076015;28;20430;-46
2022/01/14 02:26:58;;;;;;;18.40;8.67;;;6.00;99.90;;;;;;5076079;28;20454;-51
2022/01/14 02:29:25;;;;;;;21.30;10.03;;;6.10;99.90;;;;;;5075871;28;20460;-54
2022/01/14 02:31:52;;;;;;;24.67;8.93;;;6.10;99.90;;;;;;5075858;28;20440;-55
2022/01/14 02:34:19;;;;;;;18.10;10.00;;;6.10;99.90;;;;;;5075568;28;20474;-50
2022/01/14 02:36:48;;;;;;;20.53;8.23;;;6.00;99.90;;;;;;5075189;28;20480;-46
2022/01/14 02:39:17;;;;;;;25.13;10.37;;;6.00;99.90;;;;;;5075264;28;20436;-52
2022/01/14 02:41:47;;;;;;;29.33;11.00;;;6.00;99.90;;;;;;5075451;28;20487;-53
2022/01/14 02:44:18;;;;;;;28.20;11.70;;;6.00;99.90;;;;;;5075701;28;20431;-51
2022/01/14 02:46:52;;;;;;;18.00;8.93;;;6.00;99.90;;;;;;5075195;28;20463;-53
2022/01/14 02:49:19;;;;;;;22.23;7.63;;;6.10;99.90;;;;;;5075818;28;20431;-49
2022/01/14 02:51:49;;;;;;;22.33;9.80;;;6.10;99.90;;;;;;5075348;28;20488;-52
2022/01/14 02:54:21;;;;;;;19.47;8.80;;;6.10;99.90;;;;;;5075330;28;20502;-51
2022/01/14 02:56:50;;;;;;;21.13;8.33;;;6.10;99.90;;;;;;5075679;28;20461;-53
2022/01/14 02:59:17;;;;;;;22.87;10.13;;;6.10;99.90;;;;;;5075344;28;20452;-52
2022/01/14 03:01:46;;;;;;;26.33;11.33;;;6.10;99.90;;;;;;5075704;28;20423;-53
2022/01/14 03:04:16;;;;;;;21.03;9.50;;;6.00;99.90;;;;;;5075276;28;20505;-49
2022/01/14 03:06:43;;;;;;;28.73;10.70;;;6.00;99.90;;;;;;5075218;28;20469;-52
2022/01/14 03:09:12;;;;;;;21.27;10.37;;;6.00;99.90;;;;;;5077016;28;20431;-53
2022/01/14 03:11:44;;;;;;;19.13;8.83;;;5.90;99.90;;;;;;5079640;28;20498;-46
2022/01/14 03:14:11;;;;;;;23.40;10.43;;;5.90;99.90;;;;;;5079458;28;20436;-51
2022/01/14 03:16:41;;;;;;;22.67;10.60;;;6.00;99.90;;;;;;5079685;28;20470;-53
2022/01/14 03:19:14;;;;;;;18.97;8.00;;;5.90;99.90;;;;;;5079029;28;20539;-53
2022/01/14 03:21:42;;;;;;;17.70;9.60;;;5.90;99.90;;;;;;5079203;28;20448;-49
2022/01/14 03:24:21;;;;;;;20.73;8.67;;;5.90;99.90;;;;;;5078960;28;20557;-52
2022/01/14 03:26:52;;;;;;;13.37;8.17;;;5.90;99.90;;;;;;5079488;28;20487;-51
2022/01/14 03:29:20;;;;;;;17.70;10.03;;;5.90;99.90;;;;;;5079066;28;20455;-49
2022/01/14 03:31:49;;;;;;;16.13;8.40;;;5.80;99.90;;;;;;5079107;28;20431;-50
2022/01/14 03:34:16;;;;;;;25.07;10.43;;;5.80;99.90;;;;;;5079023;28;20454;-50
2022/01/14 03:36:45;;;;;;;17.20;10.50;;;5.70;99.90;;;;;;5079255;28;20443;-49
2022/01/14 03:39:13;;;;;;;22.60;9.47;;;5.80;99.90;;;;;;5079480;28;20440;-52
2022/01/14 03:41:39;;;;;;;22.70;9.87;;;5.70;99.90;;;;;;5079451;28;20467;-50
2022/01/14 03:44:07;;;;;;;20.70;12.80;;;5.70;99.90;;;;;;5079620;28;20467;-54
2022/01/14 03:46:33;;;;;;;18.90;9.30;;;5.70;99.90;;;;;;5079113;28;20448;-55
2022/01/14 03:49:00;;;;;;;16.03;8.77;;;5.80;99.90;;;;;;5079172;28;20497;-46
2022/01/14 03:51:28;;;;;;;22.53;10.30;;;5.80;99.90;;;;;;5079308;28;20436;-50
2022/01/14 03:53:55;;;;;;;22.40;9.70;;;5.80;99.90;;;;;;5078478;28;20463;-51
2022/01/14 03:56:25;;;;;;;20.80;9.33;;;5.70;99.90;;;;;;5078841;28;20461;-48
2022/01/14 03:58:53;;;;;;;14.63;8.50;;;5.70;99.90;;;;;;5078727;28;20927;-59
2022/01/14 04:01:20;;;;;;;10.37;6.37;;;5.70;99.90;;;;;;5079025;28;20474;-51
2022/01/14 04:03:48;;;;;;;19.60;9.20;;;5.70;99.90;;;;;;5079165;28;20507;-47
2022/01/14 04:06:16;;;;;;;19.40;9.93;;;5.70;99.90;;;;;;5078731;28;20452;-50
2022/01/14 04:08:43;;;;;;;12.00;5.87;;;5.70;99.90;;;;;;5078445;28;20448;-51
2022/01/14 04:11:11;;;;;;;16.03;7.63;;;5.70;99.90;;;;;;5078788;28;20458;-55
2022/01/14 04:13:46;;;;;;;17.33;8.20;;;5.70;99.90;;;;;;5078475;28;20435;-56
2022/01/14 04:16:13;;;;;;;15.00;8.10;;;5.70;99.90;;;;;;5078892;28;20432;-53
2022/01/14 04:18:40;;;;;;;17.37;8.83;;;5.70;99.90;;;;;;5079147;28;20459;-52
2022/01/14 04:21:07;;;;;;;35.33;9.00;;;5.70;99.90;;;;;;5078031;28;20466;-52
2022/01/14 04:23:34;;;;;;;17.67;8.97;;;5.70;99.90;;;;;;5078238;28;20510;-53
2022/01/14 04:26:00;;;;;;;15.57;7.80;;;5.60;99.90;;;;;;5078347;28;20420;-55
2022/01/14 04:28:30;;;;;;;17.77;9.07;;;5.60;99.90;;;;;;5078637;28;20458;-47
2022/01/14 04:30:59;;;;;;;14.43;10.13;;;5.60;99.90;;;;;;5078190;28;20459;-51
2022/01/14 04:33:27;;;;;;;8.43;5.63;;;5.60;99.90;;;;;;5078272;28;20447;-54
2022/01/14 04:35:55;;;;;;;14.33;7.50;;;5.60;99.90;;;;;;5077787;28;20444;-55
2022/01/14 04:38:22;;;;;;;11.17;5.50;;;5.60;99.90;;;;;;5078243;28;20432;-48
2022/01/14 04:40:48;;;;;;;18.23;9.13;;;5.60;99.90;;;;;;5078390;28;20467;-54
2022/01/14 04:43:18;;;;;;;15.97;8.57;;;5.60;99.90;;;;;;5077821;28;20468;-51
2022/01/14 04:46:01;;;;;;;21.10;8.67;;;5.60;99.90;;;;;;5077648;28;20499;-53
2022/01/14 04:48:31;;;;;;;13.13;6.60;;;5.60;99.90;;;;;;5077777;28;20464;-53
2022/01/14 04:50:59;;;;;;;19.83;8.97;;;5.60;99.90;;;;;;5077628;28;20478;-50
2022/01/14 04:53:26;;;;;;;21.93;8.93;;;5.60;99.90;;;;;;5077774;28;20432;-49
2022/01/14 04:55:55;;;;;;;17.27;7.37;;;5.60;99.90;;;;;;5077235;28;20527;-49
2022/01/14 04:58:22;;;;;;;39.97;10.30;;;5.60;99.90;;;;;;5077308;28;20431;-48
2022/01/14 05:00:49;;;;;;;14.33;7.70;;;5.60;99.90;;;;;;5077134;28;20476;-53
2022/01/14 05:03:16;;;;;;;18.77;7.50;;;5.70;99.90;;;;;;5077511;28;20494;-52
2022/01/14 05:05:47;;;;;;;11.60;6.00;;;5.70;99.90;;;;;;5077836;28;20550;-48
2022/01/14 05:08:20;;;;;;;16.70;7.63;;;5.60;99.90;;;;;;5077229;28;20470;-52
2022/01/14 05:11:03;;;;;;;21.33;9.60;;;5.60;99.90;;;;;;5077364;28;20421;-49
2022/01/14 05:13:29;;;;;;;15.13;7.47;;;5.60;99.90;;;;;;5077897;28;20460;-49
2022/01/14 05:15:58;;;;;;;19.53;10.10;;;5.60;99.90;;;;;;5077240;28;20426;-54
2022/01/14 05:18:25;;;;;;;19.20;8.97;;;5.60;99.90;;;;;;5077466;28;20443;-50
2022/01/14 05:20:53;;;;;;;8.13;4.90;;;5.60;99.90;;;;;;5077816;28;20481;-48
2022/01/14 05:23:20;;;;;;;19.93;6.83;;;5.60;99.90;;;;;;5077371;28;20501;-47
2022/01/14 05:25:47;;;;;;;16.63;10.10;;;5.60;99.90;;;;;;5077155;28;20459;-45
2022/01/14 05:28:13;;;;;;;12.77;6.20;;;5.60;99.90;;;;;;5077253;28;20454;-54
2022/01/14 05:30:40;;;;;;;18.70;9.83;;;5.60;99.90;;;;;;5076462;28;20448;-49
2022/01/14 05:33:07;;;;;;;15.97;7.27;;;5.60;99.90;;;;;;5076558;28;20424;-56
2022/01/14 05:35:33;;;;;;;24.27;10.40;;;5.60;99.90;;;;;;5077303;28;20444;-57
2022/01/14 05:38:01;;;;;;;15.10;7.83;;;5.60;99.90;;;;;;5076820;28;20464;-52
2022/01/14 05:40:29;;;;;;;20.83;8.63;;;5.60;99.90;;;;;;5076536;28;20432;-51
2022/01/14 05:42:56;;;;;;;17.47;8.70;;;5.60;99.90;;;;;;5076124;28;20774;-52
2022/01/14 05:45:22;;;;;;;19.50;8.73;;;5.60;99.90;;;;;;5077506;28;20424;-54
2022/01/14 05:47:49;;;;;;;10.23;3.87;;;5.60;99.90;;;;;;5076444;28;20443;-48
2022/01/14 05:50:17;;;;;;;24.93;10.17;;;5.60;99.90;;;;;;5076692;28;20477;-53
2022/01/14 05:52:46;;;;;;;29.83;9.77;;;5.60;99.90;;;;;;5076532;28;20478;-51
2022/01/14 05:55:17;;;;;;;19.47;10.53;;;5.60;99.90;;;;;;5076606;28;20440;-52
2022/01/14 05:57:44;;;;;;;15.43;7.20;;;5.60;99.90;;;;;;5077048;28;20419;-50
2022/01/14 06:00:14;;;;;;;17.80;10.20;;;5.60;99.90;;;;;;5076791;28;20436;-51
2022/01/14 06:02:41;;;;;;;14.73;7.80;;;5.60;99.90;;;;;;5076767;28;20451;-49
2022/01/14 06:05:08;;;;;;;21.97;9.27;;;5.60;99.90;;;;;;5076059;28;20463;-53
2022/01/14 06:07:37;;;;;;;26.33;10.70;;;5.50;99.90;;;;;;5075809;28;20464;-54
2022/01/14 06:10:04;;;;;;;18.40;8.17;;;5.50;99.90;;;;;;5075806;28;20448;-48
2022/01/14 06:12:32;;;;;;;35.23;12.23;;;5.50;99.90;;;;;;5076057;28;20427;-51
2022/01/14 06:15:00;;;;;;;16.73;9.17;;;5.50;99.90;;;;;;5075790;28;20483;-53
2022/01/14 06:17:27;;;;;;;21.93;10.40;;;5.40;99.90;;;;;;5076000;28;20435;-48
2022/01/14 06:19:57;;;;;;;22.43;10.00;;;5.40;99.90;;;;;;5075713;28;20468;-49
2022/01/14 06:22:24;;;;;;;24.30;11.00;;;5.40;99.90;;;;;;5076126;28;20428;-53
2022/01/14 06:24:51;;;;;;;21.77;9.50;;;5.40;99.90;;;;;;5076151;28;20487;-46
2022/01/14 06:27:17;;;;;;;28.50;12.67;;;5.40;99.90;;;;;;5076154;28;20444;-51
2022/01/14 06:29:45;;;;;;;29.30;11.03;;;5.30;99.90;;;;;;5075804;28;20474;-50
2022/01/14 06:32:12;;;;;;;22.50;11.33;;;5.30;99.90;;;;;;5075782;28;20464;-52
2022/01/14 06:34:39;;;;;;;34.50;14.23;;;5.30;99.90;;;;;;5075919;28;20443;-48
2022/01/14 06:37:06;;;;;;;27.23;10.67;;;5.30;99.90;;;;;;5075717;28;20474;-49
2022/01/14 06:39:35;;;;;;;23.40;11.10;;;5.30;99.90;;;;;;5075867;28;20431;-52
2022/01/14 06:42:02;;;;;;;27.83;11.40;;;5.30;99.90;;;;;;5075183;28;20443;-51
2022/01/14 06:44:29;;;;;;;31.33;14.23;;;5.30;99.90;;;;;;5075750;28;20479;-48
2022/01/14 06:46:57;;;;;;;30.93;10.73;;;5.30;99.90;;;;;;5075509;28;20458;-55
2022/01/14 06:49:23;;;;;;;41.60;13.10;;;5.30;99.90;;;;;;5075632;28;20486;-52
2022/01/14 06:51:50;;;;;;;26.27;10.90;;;5.30;99.90;;;;;;5075658;28;20478;-52
2022/01/14 06:54:17;;;;;;;24.93;11.83;;;5.30;99.90;;;;;;5076086;28;20442;-51
2022/01/14 06:56:44;;;;;;;24.03;10.03;;;5.30;99.90;;;;;;5075624;28;20972;-48
2022/01/14 06:59:10;;;;;;;28.90;11.87;;;5.30;99.90;;;;;;5075927;28;20452;-53
2022/01/14 07:01:37;;;;;;;27.07;11.47;;;5.30;99.90;;;;;;5075639;28;20423;-51
2022/01/14 07:04:05;;;;;;;36.00;13.10;;;5.40;99.90;;;;;;5075761;28;20476;-54
2022/01/14 07:06:32;;;;;;;30.83;10.13;;;5.40;99.90;;;;;;5075601;28;20807;-50
2022/01/14 07:08:58;;;;;;;28.90;12.70;;;5.50;99.90;;;;;;5075966;28;20456;-51
2022/01/14 07:11:30;;;;;;;23.27;8.97;;;5.40;99.90;;;;;;5075973;28;20475;-50
2022/01/14 07:13:56;;;;;;;26.70;11.53;;;5.50;99.90;;;;;;5076088;28;20424;-51
2022/01/14 07:16:23;;;;;;;51.87;13.33;;;5.50;99.90;;;;;;5075955;28;20473;-48
2022/01/14 07:18:50;;;;;;;23.23;11.90;;;5.50;99.90;;;;;;5075828;28;20436;-51
2022/01/14 07:21:18;;;;;;;23.87;11.30;;;5.50;99.90;;;;;;5075807;28;20488;-49
2022/01/14 07:23:44;;;;;;;20.50;9.50;;;5.50;99.90;;;;;;5075707;28;20484;-55
2022/01/14 07:26:11;;;;;;;21.87;8.57;;;5.60;99.90;;;;;;5075277;28;20443;-54
2022/01/14 07:28:40;;;;;;;24.30;8.60;;;5.60;99.90;;;;;;5074973;28;20517;-52
2022/01/14 07:31:08;;;;;;;23.33;12.30;;;5.60;99.90;;;;;;5075357;28;20456;-53
2022/01/14 07:33:35;;;;;;;26.67;11.67;;;5.60;99.90;;;;;;5075007;28;20721;-53
2022/01/14 07:36:02;;;;;;;20.33;8.17;;;5.60;99.90;;;;;;5075554;28;20435;-49
2022/01/14 07:38:30;;;;;;;14.53;8.03;;;5.60;99.90;;;;;;5075486;28;20494;-49
2022/01/14 07:40:57;;;;;;;24.10;9.33;;;5.60;99.90;;;;;;5074990;28;20464;-52
2022/01/14 07:43:23;;;;;;;24.77;8.03;;;5.60;99.90;;;;;;5075033;28;20454;-48
2022/01/14 07:45:50;;;;;;;19.30;9.53;;;5.60;99.90;;;;;;5075569;28;20416;-54
2022/01/14 07:48:16;;;;;;;15.73;7.37;;;5.60;99.90;;;;;;5074896;28;20440;-54
2022/01/14 07:50:43;;;;;;;15.97;8.13;;;5.60;99.90;;;;;;5075086;28;20501;-53
2022/01/14 07:53:10;;;;;;;13.93;5.93;;;5.60;99.90;;;;;;5075177;28;20447;-53
2022/01/14 07:55:38;;;;;;;18.77;8.47;;;5.70;99.90;;;;;;5077040;28;20494;-56
2022/01/14 07:58:05;;;;;;;16.97;7.70;;;5.70;99.90;;;;;;5078991;28;20464;-50
2022/01/14 08:00:33;;;;;;;14.53;5.50;;;5.70;99.90;;;;;;5078909;28;20467;-51
2022/01/14 08:03:00;;;;;;;24.00;8.43;;;5.70;99.90;;;;;;5079066;28;20454;-53
2022/01/14 08:05:27;;;;;;;13.60;7.10;;;5.60;99.90;;;;;;5078651;28;20479;-52
2022/01/14 08:07:56;;;;;;;14.97;8.27;;;5.60;99.90;;;;;;5078644;28;20447;-47
2022/01/14 08:10:25;;;;;;;19.43;7.37;;;5.70;99.90;;;;;;5078349;28;20451;-51
2022/01/14 08:12:54;;;;;;;19.20;7.33;;;5.70;99.90;;;;;;5078638;28;20435;-49
2022/01/14 08:15:24;;;;;;;19.97;9.23;;;5.70;99.90;;;;;;5078121;28;20512;-52
2022/01/14 08:17:51;;;;;;;17.20;8.23;;;5.70;99.90;;;;;;5078719;28;20474;-47
2022/01/14 08:20:18;;;;;;;23.97;10.37;;;5.70;99.90;;;;;;5078187;28;20536;-51
2022/01/14 08:22:44;;;;;;;15.67;8.47;;;5.70;99.90;;;;;;5078588;28;20456;-54
2022/01/14 08:25:12;;;;;;;17.50;9.00;;;5.70;99.90;;;;;;5078306;28;20475;-51
2022/01/14 08:27:39;;;;;;;16.60;7.83;;;5.70;99.90;;;;;;5078155;28;20444;-47
2022/01/14 08:30:08;;;;;;;9.80;6.97;;;5.70;99.90;;;;;;5077603;28;20454;-50
2022/01/14 08:32:35;;;;;;;26.93;12.17;;;5.60;99.90;;;;;;5078213;28;20505;-47
2022/01/14 08:35:02;;;;;;;13.63;8.17;;;5.60;99.90;;;;;;5078282;28;20474;-51
2022/01/14 08:37:29;;;;;;;17.07;7.70;;;5.70;99.90;;;;;;5077929;28;20450;-54
2022/01/14 08:39:56;;;;;;;19.93;8.77;;;5.70;99.90;;;;;;5077858;28;20460;-52
2022/01/14 08:42:26;;;;;;;15.77;6.63;;;5.70;99.90;;;;;;5077223;28;20443;-51
2022/01/14 08:44:52;;;;;;;21.07;10.47;;;5.60;99.90;;;;;;5077953;28;20491;-48
2022/01/14 08:47:21;;;;;;;12.00;7.37;;;5.60;99.90;;;;;;5077978;28;20448;-48
2022/01/14 08:49:47;;;;;;;14.73;6.23;;;5.60;99.90;;;;;;5066279;28;20491;-52
2022/01/14 08:52:15;;;;;;;18.00;9.27;;;5.70;99.90;;;;;;5077599;28;20448;-52
2022/01/14 08:54:42;;;;;;;9.40;5.50;;;5.60;99.90;;;;;;5077571;28;20456;-49
2022/01/14 08:57:10;;;;;;;21.90;9.10;;;5.80;99.90;;;;;;5077551;28;20523;-52
2022/01/14 08:59:37;;;;;;;21.00;7.40;;;6.00;99.90;;;;;;5076093;28;20444;-53
2022/01/14 09:02:05;;;;;;;15.17;8.33;;;6.30;99.90;;;;;;5077151;28;20429;-47
2022/01/14 09:04:34;;;;;;;24.73;8.93;;;6.20;99.90;;;;;;5077546;28;20463;-49
2022/01/14 09:07:01;;;;;;;21.00;9.13;;;6.20;99.90;;;;;;5071729;28;20502;-46
2022/01/14 09:09:28;;;;;;;18.37;9.27;;;6.50;99.90;;;;;;5071187;28;20452;-53
2022/01/14 09:11:55;;;;;;;24.77;8.70;;;6.50;99.90;;;;;;5074443;28;20468;-53
2022/01/14 09:14:23;;;;;;;16.40;8.50;;;6.50;99.90;;;;;;5075071;28;20884;-48
2022/01/14 09:16:50;;;;;;;21.73;10.10;;;6.50;99.90;;;;;;5075204;28;20470;-53
2022/01/14 09:19:17;;;;;;;22.20;8.10;;;6.50;99.90;;;;;;5074407;28;20444;-51
2022/01/14 09:21:46;;;;;;;21.27;8.73;;;6.50;99.90;;;;;;5073090;28;20460;-52
2022/01/14 09:24:13;;;;;;;13.90;8.17;;;6.70;99.90;;;;;;5073642;28;20485;-53
2022/01/14 09:26:40;;;;;;;19.97;7.27;;;6.70;99.90;;;;;;5073630;28;20444;-58
2022/01/14 09:29:08;;;;;;;16.27;6.57;;;6.60;99.90;;;;;;5073937;28;20471;-55
2022/01/14 09:31:36;;;;;;;21.53;7.53;;;6.60;99.90;;;;;;5074702;28;20442;-50
2022/01/14 09:34:03;;;;;;;18.30;7.97;;;6.40;99.90;;;;;;5074819;28;20909;-49
2022/01/14 09:36:30;;;;;;;9.40;4.80;;;6.30;99.90;;;;;;5074693;28;20454;-49
2022/01/14 09:38:59;;;;;;;15.87;7.37;;;6.40;99.90;;;;;;5073381;28;20474;-54
2022/01/14 09:41:26;;;;;;;30.93;10.53;;;6.60;99.90;;;;;;5073759;28;20468;-52
2022/01/14 09:43:53;;;;;;;20.30;8.37;;;6.60;99.90;;;;;;5072946;28;20464;-53
2022/01/14 09:46:20;;;;;;;18.80;8.40;;;6.60;99.90;;;;;;5074314;28;20504;-55
2022/01/14 09:48:50;;;;;;;19.93;7.13;;;6.60;99.90;;;;;;5074308;28;20492;-49
2022/01/14 09:51:17;;;;;;;12.23;7.27;;;6.80;99.90;;;;;;5076550;28;20421;-51
2022/01/14 09:53:44;;;;;;;15.47;7.37;;;6.70;99.90;;;;;;5076221;28;20463;-52
2022/01/14 09:56:15;;;;;;;19.87;9.17;;;6.70;99.90;;;;;;5076422;28;20497;-53
2022/01/14 09:58:47;;;;;;;15.63;7.93;;;6.60;99.90;;;;;;5076089;28;20459;-51
2022/01/14 10:01:16;;;;;;;21.03;6.80;;;6.70;99.90;;;;;;5076119;28;20440;-50
2022/01/14 10:03:52;;;;;;;15.43;7.60;;;6.70;99.90;;;;;;5075328;28;20448;-47
2022/01/14 10:06:40;;;;;;;11.33;4.87;;;6.70;99.90;;;;;;5073666;28;20478;-51
2022/01/14 10:09:09;;;;;;;14.90;8.00;;;6.90;99.90;;;;;;5076411;28;20434;-53
2022/01/14 10:11:40;;;;;;;19.77;6.07;;;7.10;99.90;;;;;;5076409;28;20455;-52
2022/01/14 10:14:10;;;;;;;9.90;5.77;;;6.90;99.90;;;;;;5075417;28;20458;-49
2022/01/14 10:16:40;;;;;;;14.20;6.83;;;6.80;99.90;;;;;;5075773;28;20490;-51
2022/01/14 10:19:19;;;;;;;13.77;7.57;;;6.70;99.90;;;;;;5074725;28;20421;-50
2022/01/14 10:21:46;;;;;;;16.20;5.70;;;6.80;99.90;;;;;;5075639;28;20526;-47
2022/01/14 10:24:13;;;;;;;12.00;5.83;;;6.90;99.90;;;;;;5075319;28;20455;-49
2022/01/14 10:26:50;;;;;;;10.90;4.90;;;7.10;99.90;;;;;;5075064;28;20436;-53
2022/01/14 10:29:27;;;;;;;30.20;7.57;;;7.30;99.90;;;;;;5075273;28;20420;-50
2022/01/14 10:31:54;;;;;;;17.27;3.60;;;7.30;99.90;;;;;;5075450;28;20423;-51
2022/01/14 10:34:21;;;;;;;7.87;5.00;;;7.40;99.90;;;;;;5074828;28;20532;-56
2022/01/14 10:36:51;;;;;;;12.43;5.80;;;7.20;99.90;;;;;;5075242;28;20472;-52
2022/01/14 10:39:23;;;;;;;9.70;5.47;;;7.20;99.90;;;;;;5074727;28;20460;-55
2022/01/14 10:41:52;;;;;;;16.37;6.33;;;7.20;99.90;;;;;;5075081;28;20416;-48
2022/01/14 10:44:34;;;;;;;7.13;4.27;;;7.30;99.90;;;;;;5075051;28;20479;-64
2022/01/14 10:47:11;;;;;;;7.40;5.03;;;7.20;99.90;;;;;;5075132;28;20424;-48
2022/01/14 10:49:39;;;;;;;7.97;4.80;;;7.30;99.90;;;;;;5074683;28;20470;-53
2022/01/14 10:52:15;;;;;;;15.03;7.10;;;7.30;99.90;;;;;;5074537;28;20448;-52
2022/01/14 10:54:44;;;;;;;11.73;5.57;;;7.40;99.90;;;;;;5075020;28;20423;-51
2022/01/14 10:57:21;;;;;;;14.23;7.40;;;7.30;99.90;;;;;;5075096;28;20443;-52
2022/01/14 10:59:50;;;;;;;8.73;4.13;;;7.10;99.90;;;;;;5073492;28;20446;-50
2022/01/14 11:02:38;;;;;;;5.37;3.47;;;7.00;99.90;;;;;;5075125;28;20464;-51
2022/01/14 11:05:13;;;;;;;6.60;5.13;;;6.90;99.90;;;;;;5075273;28;20494;-51
2022/01/14 11:07:45;;;;;;;8.93;5.43;;;6.80;99.90;;;;;;5074721;28;20458;-62
2022/01/14 11:10:22;;;;;;;10.57;5.20;;;6.80;99.90;;;;;;5075173;28;20463;-44
2022/01/14 11:12:52;;;;;;;9.53;5.37;;;6.80;99.90;;;;;;5075219;28;20463;-54
2022/01/14 11:15:21;;;;;;;12.53;6.63;;;6.90;99.90;;;;;;5075586;28;20458;-42
2022/01/14 11:17:51;;;;;;;7.80;4.73;;;6.90;99.90;;;;;;5075268;28;20454;-45
2022/01/14 11:20:26;;;;;;;5.67;3.67;;;6.90;99.90;;;;;;5075360;28;20485;-49
2022/01/14 11:25:40;;;;;;;6.53;3.30;;;6.90;99.90;;;;;;5075584;28;20458;-41
2022/01/14 11:28:10;;;;;;;9.03;5.13;;;6.80;99.90;;;;;;5075051;28;20427;-45
2022/01/14 11:30:42;;;;;;;6.63;3.77;;;6.80;99.90;;;;;;5078724;28;20440;-48
2022/01/14 11:33:15;;;;;;;7.33;3.77;;;6.80;99.90;;;;;;5079736;28;20463;-43
2022/01/14 11:35:55;;;;;;;15.63;5.90;;;6.80;99.90;;;;;;5079539;28;20470;-46
2022/01/14 11:38:41;;;;;;;6.57;4.17;;;6.80;99.90;;;;;;5079419;28;20443;-41
2022/01/14 11:41:16;;;;;;;7.33;4.80;;;6.80;99.90;;;;;;5079085;28;20498;-49
2022/01/14 11:43:55;;;;;;;9.57;4.17;;;6.70;99.90;;;;;;5080012;28;20502;-49
2022/01/14 11:46:44;;;;;;;12.13;5.30;;;6.80;99.90;;;;;;5079089;28;20475;-43
2022/01/14 11:49:34;;;;;;;8.77;5.63;;;6.80;99.90;;;;;;5079588;28;20432;-48
2022/01/14 11:52:03;;;;;;;5.00;3.20;;;6.90;99.90;;;;;;5079271;28;20514;-47
2022/01/14 11:54:41;;;;;;;7.43;4.80;;;6.90;99.90;;;;;;5079027;28;20445;-48
2022/01/14 11:57:09;;;;;;;8.60;3.50;;;6.90;99.90;;;;;;5078622;28;20459;-48
2022/01/14 11:59:44;;;;;;;9.40;5.20;;;6.90;99.90;;;;;;5078375;28;20842;-44
2022/01/14 12:02:39;;;;;;;10.27;4.97;;;6.80;99.90;;;;;;5078538;28;20833;-42
2022/01/14 12:05:17;;;;;;;8.00;4.00;;;6.90;99.90;;;;;;5078418;28;20464;-50
2022/01/14 12:08:21;;;;;;;7.60;4.20;;;6.90;99.90;;;;;;5078297;28;20643;-51
2022/01/14 12:10:52;;;;;;;9.70;3.83;;;7.00;99.90;;;;;;5078068;28;20424;-46
2022/01/14 12:13:37;;;;;;;11.80;5.80;;;7.00;99.90;;;;;;5078417;28;20454;-47
2022/01/14 12:16:08;;;;;;;5.90;4.67;;;6.90;99.90;;;;;;5077971;28;20444;-51
2022/01/14 12:19:12;;;;;;;9.87;4.60;;;7.00;99.90;;;;;;5077397;28;20439;-53
2022/01/14 12:21:58;;;;;;;7.20;3.93;;;6.90;99.90;;;;;;5077592;28;20435;-48
2022/01/14 12:24:58;;;;;;;11.50;5.00;;;6.90;99.90;;;;;;5077211;28;20431;-46
2022/01/14 12:27:41;;;;;;;13.30;3.83;;;7.00;99.90;;;;;;5063373;28;20459;-46
2022/01/14 12:30:11;;;;;;;7.90;3.73;;;7.10;99.90;;;;;;5077656;28;20766;-42
2022/01/14 12:32:42;;;;;;;11.13;4.60;;;7.00;99.90;;;;;;5077369;28;20432;-67
2022/01/14 12:35:14;;;;;;;5.60;2.70;;;7.00;99.90;;;;;;5077143;28;20466;-45
2022/01/14 12:37:46;;;;;;;4.97;2.80;;;7.00;99.90;;;;;;5076710;28;20471;-50
2022/01/14 12:40:15;;;;;;;7.10;2.60;;;7.00;99.90;;;;;;5077133;28;20475;-42
2022/01/14 12:42:46;;;;;;;4.63;3.40;;;7.00;99.90;;;;;;5077291;28;20487;-45
2022/01/14 12:45:27;;;;;;;5.23;3.90;;;7.10;99.90;;;;;;5076882;28;20464;-51
2022/01/14 12:48:29;;;;;;;23.87;4.07;;;7.10;99.90;;;;;;5076843;28;20467;-44
2022/01/14 12:51:08;;;;;;;9.47;4.90;;;7.20;99.90;;;;;;5077538;28;20481;-44
2022/01/14 12:53:35;;;;;;;9.43;3.90;;;7.20;99.90;;;;;;5076968;28;20463;-51
2022/01/14 12:56:05;;;;;;;15.70;4.67;;;7.20;99.90;;;;;;5076416;28;20424;-54
2022/01/14 12:59:00;;;;;;;5.33;4.53;;;7.20;99.90;;;;;;5076974;28;20471;-47
2022/01/14 13:01:38;;;;;;;6.50;3.60;;;7.20;99.90;;;;;;5076721;28;20481;-48
2022/01/14 13:04:09;;;;;;;5.93;4.00;;;7.20;99.90;;;;;;5076522;28;20436;-47
2022/01/14 13:06:47;;;;;;;6.90;3.43;;;7.20;99.90;;;;;;5076273;28;20505;-46
2022/01/14 13:09:18;;;;;;;5.00;3.03;;;7.20;99.90;;;;;;5076718;28;20440;-45
2022/01/14 13:11:48;;;;;;;5.00;3.80;;;7.20;99.90;;;;;;5076522;28;20491;-49
2022/01/14 13:14:17;;;;;;;7.07;3.70;;;7.10;99.90;;;;;;5076273;28;20565;-52
2022/01/14 13:16:47;;;;;;;5.50;4.13;;;7.10;99.90;;;;;;5076880;28;20474;-46
2022/01/14 13:19:27;;;;;;;6.83;2.30;;;7.10;99.90;;;;;;5076534;28;20457;-50